Time;durP1;ratioP1;P1;durP2;ratioP2;P2;SDS_P1;SDS_P2;PMS_P1;PMS_P2;Temp;Humidity;BMP_temperature;BMP_pressure;BME280_temperature;BME280_humidity;BME280_pressure;Samples;Min_cycle;Max_cycle;Signal;HPM_P1;HPM_P2
2023/10/31 00:05:17;;;;;;;7.50;3.50;;;;;;;11.13;100.00;97697.73;272852;1270;22405;-82
2023/10/31 00:11:19;;;;;;;7.40;2.80;;;;;;;11.38;100.00;97706.67;271929;1272;23566;-83
2023/10/31 00:17:21;;;;;;;10.30;3.20;;;;;;;11.61;100.00;97719.30;272646;1270;22481;-83
2023/10/31 00:23:23;;;;;;;12.30;3.90;;;;;;;11.82;100.00;97728.60;272766;1271;23291;-82
2023/10/31 00:29:25;;;;;;;8.00;2.80;;;;;;;11.99;100.00;97720.44;272787;1270;22382;-85
2023/10/31 00:35:26;;;;;;;3.40;1.70;;;;;;;12.31;100.00;97703.08;272552;1271;22197;-82
2023/10/31 00:41:28;;;;;;;4.30;1.30;;;;;;;13.33;100.00;97694.52;272683;1270;22386;-86
2023/10/31 00:47:30;;;;;;;10.60;2.50;;;;;;;14.38;100.00;97687.55;272673;1270;22849;-81
2023/10/31 00:53:38;;;;;;;9.50;4.40;;;;;;;14.47;100.00;97691.02;272484;1270;22378;-82
2023/10/31 00:59:39;;;;;;;11.20;4.20;;;;;;;14.20;100.00;97679.63;272794;1270;23193;-82
2023/10/31 01:05:41;;;;;;;10.00;4.00;;;;;;;13.97;100.00;97657.08;272669;1270;22455;-83
2023/10/31 01:11:44;;;;;;;7.20;3.80;;;;;;;13.84;100.00;97635.76;272733;1270;22336;-82
2023/10/31 01:17:46;;;;;;;10.40;3.80;;;;;;;13.73;100.00;97621.82;272345;1270;22204;-86
2023/10/31 01:23:49;;;;;;;11.00;4.20;;;;;;;13.62;100.00;97603.91;271236;1270;23232;-81
2023/10/31 01:29:50;;;;;;;8.50;3.80;;;;;;;13.53;100.00;97595.80;270232;1266;23715;-84
2023/10/31 01:35:52;;;;;;;9.70;3.70;;;;;;;13.58;100.00;97583.04;269609;1272;23656;-83
2023/10/31 01:41:54;;;;;;;6.00;2.60;;;;;;;13.57;100.00;97570.80;270112;1271;23244;-83
2023/10/31 01:47:56;;;;;;;4.80;1.90;;;;;;;13.59;100.00;97569.02;270927;1271;22554;-82
2023/10/31 01:53:58;;;;;;;6.70;1.60;;;;;;;13.87;100.00;97550.18;271456;1270;22552;-82
2023/10/31 02:00:00;;;;;;;6.60;1.20;;;;;;;14.07;100.00;97535.59;271726;1270;22811;-82
2023/10/31 02:06:02;;;;;;;4.10;1.70;;;;;;;14.35;100.00;97530.33;272159;1272;22373;-83
2023/10/31 02:12:04;;;;;;;6.90;1.40;;;;;;;14.26;100.00;97516.27;272585;1270;22999;-83
2023/10/31 02:18:07;;;;;;;5.50;2.10;;;;;;;14.12;100.00;97508.11;272792;1270;22392;-84
2023/10/31 02:24:10;;;;;;;8.70;1.80;;;;;;;14.04;100.00;97499.05;272714;1265;22934;-83
2023/10/31 02:36:43;;;;;;;7.90;1.90;;;;;;;13.86;100.00;97488.29;266795;1269;92515;-87
2023/10/31 02:43:05;;;;;;;4.50;1.50;;;;;;;14.03;100.00;97474.80;273432;1272;22127;-88
2023/10/31 02:49:32;;;;;;;2.50;1.00;;;;;;;14.72;100.00;97466.95;272653;1272;24964;-89
2023/10/31 02:55:56;;;;;;;3.10;1.50;;;;;;;15.49;100.00;97456.36;273012;1277;22288;-89
2023/10/31 03:02:19;;;;;;;6.30;1.30;;;;;;;16.17;98.71;97466.04;273305;1278;22643;-91
2023/10/31 03:08:43;;;;;;;6.20;1.20;;;;;;;16.76;95.37;97484.10;273065;1273;24955;-87
2023/10/31 03:14:47;;;;;;;2.40;1.30;;;;;;;17.20;92.34;97494.42;273450;1272;22203;-87
2023/10/31 03:21:17;;;;;;;1.30;1.00;;;;;;;17.45;88.90;97488.05;272809;1272;22986;-89
2023/10/31 03:27:59;;;;;;;4.00;1.30;;;;;;;17.73;84.39;97476.36;273230;1272;22182;-87
2023/10/31 03:34:59;;;;;;;4.30;1.50;;;;;;;18.20;79.93;97464.70;272886;1271;22448;-88
2023/10/31 03:41:21;;;;;;;;;;;;;;;18.51;80.51;97450.10;273197;1279;22431;-89
2023/10/31 03:48:04;;;;;;;5.40;1.50;;;;;;;18.72;78.91;97440.69;272841;1271;22451;-87
2023/10/31 03:54:44;;;;;;;6.80;1.30;;;;;;;18.89;77.16;97438.35;272980;1276;22392;-89
2023/10/31 04:01:26;;;;;;;3.90;1.10;;;;;;;18.93;74.42;97428.97;273091;1272;23042;-88
2023/10/31 04:08:31;;;;;;;5.40;1.30;;;;;;;18.89;72.45;97420.91;273491;1272;22182;-87
2023/10/31 04:15:24;;;;;;;2.90;1.20;;;;;;;18.87;70.73;97415.52;273276;1270;22947;-87
2023/10/31 04:21:27;;;;;;;4.60;1.40;;;;;;;19.02;68.82;97405.64;273000;1273;22229;-88
2023/10/31 04:27:29;;;;;;;4.80;1.40;;;;;;;19.20;68.36;97392.86;272755;1270;23314;-86
2023/10/31 04:33:32;;;;;;;4.50;1.30;;;;;;;19.25;68.25;97385.71;272125;1270;22384;-87
2023/10/31 04:39:38;;;;;;;4.30;1.10;;;;;;;19.29;67.18;97379.46;273479;1272;22317;-89
2023/10/31 04:45:40;;;;;;;3.20;1.00;;;;;;;19.25;66.33;97370.09;272789;1270;22396;-88
2023/10/31 04:51:42;;;;;;;3.90;1.20;;;;;;;19.26;65.03;97367.36;272654;1269;22437;-88
2023/10/31 04:57:43;;;;;;;5.70;1.60;;;;;;;19.27;63.72;97364.38;272573;1269;22454;-85
2023/10/31 05:03:55;;;;;;;2.70;1.20;;;;;;;19.27;62.46;97359.93;271777;1269;22210;-88
2023/10/31 05:09:56;;;;;;;8.60;1.80;;;;;;;19.29;61.86;97357.66;272120;1270;22639;-85
2023/10/31 05:16:18;;;;;;;9.40;1.60;;;;;;;19.31;60.26;97362.01;273109;1270;22279;-88
2023/10/31 05:22:36;;;;;;;5.60;1.70;;;;;;;19.43;59.34;97373.02;273144;1270;22367;-88
2023/10/31 05:28:46;;;;;;;5.80;1.70;;;;;;;19.54;58.95;97379.64;272780;1270;22291;-87
2023/10/31 05:34:48;;;;;;;5.40;1.60;;;;;;;19.56;58.74;97378.71;273288;1270;22196;-88
2023/10/31 16:00:27;;;;;;;13.50;7.60;;;;;;;13.75;100.00;97651.14;265134;1304;545225;-86
2023/10/31 16:06:29;;;;;;;11.70;6.90;;;;;;;13.49;100.00;97657.63;271249;1281;23207;-86
2023/10/31 16:12:30;;;;;;;13.30;7.60;;;;;;;13.33;100.00;97660.40;270996;1278;132565;-87
2023/10/31 16:18:36;;;;;;;13.80;6.60;;;;;;;13.21;100.00;97663.71;271117;1278;22268;-87
2023/10/31 16:24:39;;;;;;;11.50;6.20;;;;;;;13.14;100.00;97664.64;271115;1279;22233;-87
2023/10/31 16:30:40;;;;;;;10.70;6.30;;;;;;;13.07;100.00;97651.13;271284;1279;22419;-85
2023/10/31 16:36:44;;;;;;;11.50;7.10;;;;;;;13.01;100.00;97668.05;271414;1279;22202;-86
2023/10/31 16:42:45;;;;;;;10.00;6.20;;;;;;;12.96;100.00;97666.16;271291;1279;22407;-85
2023/10/31 16:48:47;;;;;;;10.80;7.10;;;;;;;12.89;100.00;97675.08;271414;1275;22447;-86
2023/10/31 16:54:49;;;;;;;10.30;6.50;;;;;;;12.85;100.00;97685.58;271178;1276;22201;-83
2023/10/31 17:00:51;;;;;;;10.60;7.00;;;;;;;12.81;100.00;97708.67;271043;1279;22673;-84
2023/10/31 17:06:53;;;;;;;12.80;7.80;;;;;;;12.77;100.00;97705.52;271743;1278;22326;-84
2023/10/31 17:12:55;;;;;;;13.80;7.10;;;;;;;12.74;100.00;97729.25;271621;1279;22422;-85
2023/10/31 17:18:56;;;;;;;12.30;7.60;;;;;;;12.76;100.00;97739.58;272564;1272;22219;-85
2023/10/31 17:24:59;;;;;;;15.50;8.80;;;;;;;12.77;100.00;97745.29;272477;1272;23036;-84
2023/10/31 17:31:00;;;;;;;12.90;9.10;;;;;;;12.76;100.00;97750.18;272845;1270;22341;-84
2023/10/31 17:37:03;;;;;;;12.30;8.90;;;;;;;12.73;100.00;97756.27;272828;1270;22191;-84
2023/10/31 17:43:05;;;;;;;12.80;8.60;;;;;;;12.74;100.00;97768.64;272837;1263;22368;-84
2023/10/31 17:49:06;;;;;;;14.30;9.50;;;;;;;12.74;100.00;97779.86;272383;1270;22182;-84
2023/10/31 17:55:09;;;;;;;15.00;10.60;;;;;;;12.70;100.00;97785.66;272618;1270;24129;-85
2023/10/31 18:01:11;;;;;;;16.40;9.00;;;;;;;12.57;100.00;97799.20;272638;1270;23271;-84
2023/10/31 18:07:14;;;;;;;9.00;6.20;;;;;;;12.33;100.00;97813.52;271440;1269;23530;-84
2023/10/31 18:13:15;;;;;;;7.70;4.60;;;;;;;12.12;100.00;97829.02;272567;1269;22458;-86
2023/10/31 18:19:18;;;;;;;5.70;3.80;;;;;;;11.91;100.00;97836.05;273073;1269;22780;-84
2023/10/31 18:25:40;;;;;;;7.40;3.40;;;;;;;11.77;100.00;97848.29;273660;1272;22151;-87
2023/10/31 18:32:25;;;;;;;5.10;3.70;;;;;;;11.66;100.00;97872.13;273715;1267;22265;-84
2023/10/31 18:38:55;;;;;;;6.30;4.20;;;;;;;11.56;100.00;97882.71;273819;1267;23153;-86
2023/10/31 18:44:56;;;;;;;7.50;4.50;;;;;;;11.48;100.00;97891.73;273597;1267;22361;-86
2023/10/31 18:51:09;;;;;;;7.10;5.10;;;;;;;11.42;100.00;97905.10;273764;1269;22184;-85
2023/10/31 18:57:11;;;;;;;6.40;4.60;;;;;;;11.36;100.00;97917.99;273807;1267;23104;-86
2023/10/31 19:03:37;;;;;;;7.50;5.20;;;;;;;11.34;100.00;97934.45;273903;1269;22159;-85
2023/10/31 19:10:00;;;;;;;10.10;5.00;;;;;;;11.30;100.00;97946.85;273344;1269;22998;-86
2023/10/31 19:16:06;;;;;;;6.40;5.10;;;;;;;11.25;100.00;97953.46;272412;1269;22538;-86
2023/10/31 19:22:28;;;;;;;7.20;5.20;;;;;;;11.19;100.00;97961.96;271899;1267;22443;-87
2023/10/31 19:28:30;;;;;;;6.60;4.50;;;;;;;11.12;100.00;97972.20;271559;1260;22954;-86
2023/10/31 19:34:32;;;;;;;6.80;5.20;;;;;;;11.06;100.00;97984.20;272175;1267;23754;-86
2023/10/31 19:40:35;;;;;;;8.10;4.20;;;;;;;11.00;100.00;98002.56;273450;1267;22195;-86
2023/10/31 19:46:48;;;;;;;5.40;4.30;;;;;;;10.94;100.00;98009.64;273217;1268;23102;-87
2023/10/31 19:53:35;;;;;;;7.50;4.80;;;;;;;10.88;100.00;98009.52;273611;1266;22195;-86
2023/10/31 19:59:40;;;;;;;8.00;5.70;;;;;;;10.80;100.00;98010.58;273765;1267;22477;-87
2023/10/31 20:05:47;;;;;;;8.30;6.20;;;;;;;10.75;100.00;98017.25;274071;1275;22910;-86
2023/10/31 20:12:13;;;;;;;9.00;5.40;;;;;;;10.71;100.00;98021.03;273790;1269;22169;-87
2023/10/31 20:18:15;;;;;;;11.60;4.60;;;;;;;10.68;100.00;98024.25;273809;1267;22388;-86
2023/10/31 20:24:25;;;;;;;8.20;4.90;;;;;;;10.66;100.00;98026.83;273827;1275;22205;-86
2023/10/31 20:30:48;;;;;;;8.40;5.80;;;;;;;10.63;100.00;98025.91;273937;1263;22335;-88
2023/10/31 20:37:24;;;;;;;7.10;5.50;;;;;;;10.60;100.00;98033.73;273523;1269;22927;-86
2023/10/31 20:43:46;;;;;;;8.10;5.50;;;;;;;10.57;100.00;98027.89;273733;1270;22207;-86
2023/10/31 20:49:48;;;;;;;8.10;5.60;;;;;;;10.52;100.00;98046.92;273238;1266;22326;-87
2023/10/31 20:55:57;;;;;;;11.00;6.80;;;;;;;10.47;100.00;98048.34;273483;1267;23471;-87
2023/10/31 21:02:21;;;;;;;14.40;7.50;;;;;;;10.44;100.00;98047.02;273315;1263;22463;-86
2023/10/31 21:09:09;;;;;;;18.70;9.60;;;;;;;10.41;100.00;98050.55;273031;1267;22241;-86
2023/10/31 21:15:52;;;;;;;13.40;8.30;;;;;;;10.38;100.00;98059.39;265752;1269;10001520;-86
2023/10/31 21:22:34;;;;;;;9.00;6.80;;;;;;;10.38;100.00;98071.12;273818;1270;23511;-86
2023/10/31 21:28:57;;;;;;;8.60;6.50;;;;;;;10.38;100.00;98073.70;273802;1269;22234;-86
2023/10/31 21:35:19;;;;;;;7.80;5.60;;;;;;;10.33;100.00;98082.55;273790;1273;22229;-87
2023/10/31 21:42:04;;;;;;;11.30;6.60;;;;;;;10.30;100.00;98082.09;273928;1273;22177;-87
2023/10/31 21:48:47;;;;;;;13.10;8.50;;;;;;;10.27;100.00;98077.33;273495;1267;23468;-86
2023/10/31 21:54:49;;;;;;;13.10;8.10;;;;;;;10.22;100.00;98085.30;273721;1266;23143;-85
2023/10/31 22:01:11;;;;;;;10.50;7.80;;;;;;;10.24;100.00;98094.05;273985;1267;22953;-86
2023/10/31 22:07:31;;;;;;;12.50;6.10;;;;;;;10.21;100.00;98103.98;273963;1269;22385;-87
2023/10/31 22:14:13;;;;;;;9.10;5.40;;;;;;;10.20;100.00;98114.99;273939;1269;22246;-87
2023/10/31 22:20:16;;;;;;;7.00;4.30;;;;;;;10.19;100.00;98122.98;273030;1269;22662;-86
2023/10/31 22:26:39;;;;;;;7.90;4.20;;;;;;;10.16;100.00;98128.13;272573;1263;22386;-86
2023/10/31 22:32:41;;;;;;;8.20;4.40;;;;;;;10.16;100.00;98136.27;273114;1262;22180;-86
2023/10/31 22:38:43;;;;;;;7.00;4.10;;;;;;;10.14;100.00;98145.56;273363;1269;22406;-86
2023/10/31 22:44:47;;;;;;;6.60;4.90;;;;;;;10.12;100.00;98154.54;273361;1267;22574;-86
2023/10/31 22:51:30;;;;;;;6.20;4.20;;;;;;;10.09;100.00;98165.86;272500;1268;25392;-86
2023/10/31 22:57:48;;;;;;;9.10;5.30;;;;;;;10.07;100.00;98165.09;273287;1269;22224;-85
2023/10/31 23:03:50;;;;;;;8.60;5.70;;;;;;;10.10;100.00;98167.59;272967;1269;22401;-87
2023/10/31 23:09:53;;;;;;;11.90;7.50;;;;;;;10.10;100.00;98174.70;273581;1267;22227;-86
2023/10/31 23:16:15;;;;;;;12.40;7.40;;;;;;;10.09;100.00;98182.36;273527;1269;22199;-86
2023/10/31 23:22:22;;;;;;;9.30;6.60;;;;;;;10.08;100.00;98195.02;274048;1264;22249;-85
2023/10/31 23:28:43;;;;;;;7.50;5.30;;;;;;;10.08;100.00;98202.59;273945;1269;22230;-86
2023/10/31 23:35:06;;;;;;;10.00;5.70;;;;;;;10.11;100.00;98213.70;273432;1267;22172;-87
2023/10/31 23:41:27;;;;;;;12.50;7.50;;;;;;;10.10;100.00;98218.46;273928;1275;22181;-86
2023/10/31 23:47:34;;;;;;;9.20;6.20;;;;;;;10.08;100.00;98225.17;273982;1267;22279;-87
2023/10/31 23:54:16;;;;;;;9.40;6.40;;;;;;;10.09;100.00;98231.35;273540;1264;22683;-87
